Date,TemperatureHighF,TemperatureAvgF,TemperatureLowF,DewpointHighF,DewpointAvgF,DewpointLowF,HumidityHigh,HumidityAvg,HumidityLow,PressureMaxIn,PressureMinIn,WindSpeedMaxMPH,WindSpeedAvgMPH,GustSpeedMaxMPH,PrecipitationSumIn
2013-1-1,52.0,47.4,44.2,51.4,40.0,28.6,99,77,51,30.11,29.95,6,1,6,0.22
2013-1-2,51.1,46.0,40.8,50.8,43.9,38.8,99,92,76,30.19,29.92,13,3,13,0.19
2013-1-3,46.6,40.9,31.1,39.8,37.1,29.4,98,87,66,30.26,30.13,8,2,8,0.00
2013-1-4,55.6,39.9,27.3,32.4,25.2,15.2,96,61,22,30.31,30.19,11,2,11,0.00
2013-1-5,54.7,40.5,27.5,29.6,23.7,18.2,76,53,24,30.39,30.26,6,2,7,0.01
2013-1-6,50.2,43.0,35.1,41.1,36.0,28.5,95,77,59,30.26,30.06,6,1,6,0.01
2013-1-7,52.2,37.8,30.7,34.6,31.6,28.9,95,81,46,30.40,30.17,15,2,15,0.00
2013-1-8,60.4,51.1,44.1,42.6,40.3,31.9,85,68,44,30.40,30.35,6,1,12,0.00
2013-1-9,71.2,48.7,37.2,52.0,43.6,35.4,98,84,47,30.44,30.35,4,1,4,0.00
2013-1-10,65.8,56.0,47.8,53.5,46.7,36.8,99,73,47,30.52,30.40,12,3,12,0.00
2013-1-11,53.6,49.2,42.3,52.6,44.8,32.3,99,87,51,30.44,30.15,10,2,10,0.32
2013-1-12,77.2,58.5,50.0,64.6,56.0,49.7,99,93,63,30.17,30.10,5,0,5,0.04
2013-1-13,78.6,62.4,51.6,65.8,57.3,51.3,99,85,54,30.15,30.06,10,1,10,0.02
2013-1-14,75.2,65.0,55.4,64.0,60.4,54.3,99,86,67,30.17,30.08,8,1,8,0.00
2013-1-15,64.0,49.4,46.2,60.8,48.6,45.4,99,97,85,30.22,30.05,12,5,12,0.00
2013-1-16,50.5,47.7,45.1,50.3,47.3,44.3,99,98,97,30.06,29.97,12,2,12,0.07
2013-1-17,52.0,45.1,34.3,51.4,44.5,33.1,99,98,93,30.14,29.47,27,9,27,0.86
2013-1-18,50.4,37.9,28.8,36.5,28.7,18.7,99,73,34,30.53,30.13,11,2,11,0.05
2013-1-19,58.1,40.6,26.1,36.0,27.1,18.9,90,63,24,30.50,30.16,8,1,8,0.00
2013-1-20,68.9,50.3,39.2,37.0,33.6,29.6,78,57,24,30.16,29.98,9,2,9,0.00
2013-1-21,63.9,46.6,30.6,39.8,27.8,17.6,95,54,21,30.08,29.88,11,2,11,0.00
2013-1-22,43.9,35.6,25.5,20.9,4.1,-9.6,54,28,14,30.28,29.96,14,3,14,0.00
2013-1-23,44.1,31.4,18.5,15.2,4.0,-8.7,67,34,14,30.38,30.14,9,2,9,0.00
2013-1-24,42.6,33.3,24.6,27.5,7.0,-9.3,78,35,14,30.50,29.97,22,7,22,0.00
2013-1-25,27.5,24.4,19.4,24.2,12.7,-3.7,89,64,29,30.52,30.11,7,1,7,0.00
2013-1-26,44.4,30.9,24.4,38.3,28.2,21.8,99,90,63,30.31,30.09,8,1,8,0.33
2013-1-27,44.6,33.4,27.1,31.3,27.1,25.3,99,78,51,30.58,30.38,10,1,10,0.02
2013-1-28,53.6,43.4,33.3,48.7,36.5,27.5,87,77,65,30.51,30.24,9,2,9,0.01
2013-1-29,77.5,60.5,46.6,59.0,52.6,44.0,96,77,48,30.24,30.08,13,2,13,0.00
2013-1-30,72.9,67.0,58.8,66.5,62.9,57.0,99,87,73,30.08,29.42,28,8,28,0.20
2013-1-31,65.8,48.3,32.4,63.8,30.5,11.2,94,55,18,30.03,29.49,30,5,30,0.43
2013-2-1,45.0,37.2,26.1,29.6,9.9,-10.3,65,36,12,30.38,29.91,20,4,20,0.00
2013-2-2,48.2,34.9,18.3,38.4,10.9,-1.9,88,41,15,30.40,30.04,17,3,17,0.04
2013-2-3,53.8,43.0,32.0,40.1,31.2,22.1,92,66,32,30.04,29.85,11,2,11,0.08
2013-2-4,52.2,38.5,25.0,30.0,22.6,15.0,86,56,24,30.15,29.99,7,1,7,0.00
2013-2-5,66.2,47.4,33.1,38.4,32.9,24.7,87,61,27,30.02,29.87,12,2,12,0.00
2013-2-6,68.9,49.4,32.5,41.6,27.8,11.8,96,52,13,30.28,29.97,14,2,14,0.00
2013-2-7,50.4,43.9,37.8,44.7,40.3,35.8,98,88,70,30.31,29.94,17,7,17,0.24
2013-2-8,57.9,46.9,41.0,47.8,42.2,29.3,99,85,58,30.06,29.78,19,6,19,0.32
2013-2-9,57.9,42.1,29.3,30.6,22.7,6.9,80,52,14,30.35,30.05,14,3,14,0.00
2013-2-10,56.5,42.2,27.0,42.4,22.8,10.8,87,50,18,30.49,30.20,12,3,12,0.04
2013-2-11,63.7,56.9,46.0,61.6,54.7,42.4,99,93,82,30.21,29.93,14,4,14,0.05
2013-2-12,66.7,55.4,47.8,54.5,38.0,20.3,99,59,19,30.09,29.91,10,2,10,0.00
2013-2-13,49.3,46.8,44.8,48.5,45.4,38.7,99,95,68,29.96,29.61,10,2,10,0.12
2013-2-14,53.6,42.2,33.1,39.7,34.4,31.2,99,76,44,30.07,29.83,7,1,7,0.00
2013-2-15,67.5,46.3,30.7,42.6,33.3,25.3,99,68,24,30.09,29.92,9,1,9,0.00
2013-2-16,46.9,37.7,31.5,37.9,33.7,25.7,99,87,67,29.96,29.81,11,3,11,0.24
2013-2-17,42.6,31.7,22.1,25.7,11.8,-3.0,79,48,18,30.27,29.91,16,2,16,0.09
2013-2-18,54.5,36.8,18.0,29.0,15.4,5.9,87,49,15,30.41,30.26,11,2,11,0.01
2013-2-19,47.7,37.6,33.3,44.6,30.7,23.4,94,76,61,30.26,30.03,11,2,11,0.04
2013-2-20,58.5,48.0,35.8,26.4,16.0,5.6,57,30,14,29.95,29.84,9,3,9,0.01
2013-2-21,61.3,44.1,25.0,30.1,16.0,7.2,76,36,14,30.08,29.93,14,3,14,0.00
2013-2-22,43.9,36.8,33.3,37.0,33.2,22.0,97,88,42,30.17,29.95,11,4,11,0.48
2013-2-23,45.0,40.7,36.7,44.0,40.3,35.4,99,98,97,29.95,29.65,10,2,10,0.46
2013-2-24,67.5,51.4,42.4,51.9,40.0,27.0,99,71,26,29.86,29.63,10,2,10,0.02
2013-2-25,45.3,39.6,34.3,30.6,25.1,20.2,69,56,44,30.06,29.86,17,6,17,0.00
2013-2-26,60.3,47.1,36.5,60.0,44.6,26.6,99,91,66,29.96,29.39,20,6,20,0.66
2013-2-27,63.0,50.1,39.2,48.1,42.0,37.9,99,77,42,29.63,29.47,11,3,11,0.01
2013-2-28,52.0,43.5,34.5,41.9,32.8,24.6,99,68,36,29.69,29.54,9,2,9,0.00
2013-3-1,55.2,41.8,30.2,34.2,28.6,24.7,83,61,34,29.75,29.66,11,2,11,0.01
2013-3-2,54.3,40.1,28.2,33.6,26.1,17.5,93,60,30,29.75,29.63,11,2,11,0.01
2013-3-3,51.8,37.8,26.1,23.9,18.2,12.9,68,47,23,29.81,29.67,12,3,12,0.08
2013-3-4,55.4,37.4,22.8,23.5,14.6,3.9,76,45,14,29.94,29.81,11,2,11,0.00
2013-3-5,52.2,43.5,33.6,46.3,36.3,21.0,99,78,43,29.91,29.46,11,2,11,0.28
2013-3-6,50.0,44.3,38.5,49.7,33.7,24.6,99,69,43,30.04,29.53,16,6,20,0.01
2013-3-7,56.3,44.1,33.8,33.3,28.8,24.4,78,57,35,30.25,30.04,10,4,14,0.00
2013-3-8,59.7,45.5,29.8,30.6,23.3,14.3,77,46,19,30.30,30.16,11,4,22,0.20
2013-3-9,67.3,48.8,33.8,32.0,26.2,15.6,75,47,15,30.35,30.25,9,3,13,0.07
2013-3-10,71.2,52.1,33.6,39.1,24.0,12.8,92,43,12,30.34,30.23,6,2,11,0.01
2013-3-11,71.1,50.5,38.8,55.5,40.3,24.4,91,70,38,30.26,29.98,11,3,13,0.06
2013-3-12,76.5,65.5,57.2,64.6,57.4,38.2,99,78,47,29.98,29.77,10,5,15,0.21
2013-3-13,62.6,53.9,35.8,39.6,23.9,12.0,83,34,17,30.11,29.95,9,4,14,0.07
2013-3-14,58.5,47.8,34.7,25.9,16.9,7.7,66,32,16,30.21,30.10,8,2,11,0.08
2013-3-15,66.9,52.7,27.3,35.9,26.5,13.1,81,40,19,30.21,29.93,7,3,12,0.09
2013-3-16,81.5,64.3,49.5,48.6,43.0,35.2,65,49,26,29.93,29.70,10,4,17,0.13
2013-3-17,65.1,52.6,43.2,55.4,45.1,39.1,99,76,44,30.19,29.87,13,8,18,0.06
2013-3-18,46.0,41.9,38.8,45.2,41.5,38.4,99,98,92,30.21,29.91,10,5,14,0.13
2013-3-19,72.0,53.8,41.9,53.3,34.1,4.7,99,61,12,30.03,29.84,8,3,14,0.04
2013-3-20,60.6,49.1,35.6,27.9,10.7,-1.7,65,24,13,30.15,29.81,7,3,13,0.01
2013-3-21,50.5,39.3,32.2,31.9,16.5,-0.4,75,43,16,30.00,29.75,11,3,14,0.00
2013-3-22,57.7,44.4,23.0,22.7,11.9,4.0,71,29,14,30.10,29.99,6,3,16,0.00
2013-3-23,57.6,46.9,39.2,31.3,23.9,14.0,71,43,21,30.08,29.93,5,2,8,0.07
2013-3-25,52.2,44.1,38.5,40.9,26.4,21.3,99,52,33,30.16,29.92,9,4,15,0.26
2013-3-26,54.9,43.7,34.0,31.5,27.6,23.0,73,54,34,30.44,30.16,7,3,12,0.00
2013-3-27,57.4,43.9,32.5,31.5,22.6,10.5,78,47,19,30.56,30.44,8,4,13,0.04
2013-3-28,62.1,45.6,29.8,31.3,22.6,14.4,78,45,17,30.62,30.48,7,3,14,0.00
2013-3-29,64.6,41.8,29.5,37.7,25.8,16.2,88,58,16,30.66,30.19,7,1,8,0.35
2013-3-30,69.4,54.6,42.3,45.3,39.1,31.4,82,58,35,30.25,30.10,4,2,7,0.12
2013-3-31,71.4,58.0,48.0,58.8,52.2,43.6,99,82,60,30.12,29.83,8,3,11,0.19
2013-4-1,77.9,63.1,55.0,56.9,48.0,35.8,99,66,23,29.95,29.82,7,2,14,0.06
2013-4-2,66.6,53.1,40.8,41.2,29.0,17.6,71,43,17,30.17,29.95,11,4,16,0.06
2013-4-3,66.2,53.1,43.5,36.6,19.3,8.6,70,29,13,30.30,30.13,10,4,14,0.00
2013-4-4,50.0,43.8,39.6,42.7,34.6,21.3,99,74,33,30.35,29.90,14,7,27,0.63
2013-4-5,65.8,49.4,40.3,51.6,44.8,40.0,99,86,55,30.03,29.88,8,3,12,0.02
2013-4-6,70.2,55.3,42.1,43.9,33.1,17.1,99,50,17,30.29,30.02,12,5,18,0.05
2013-4-7,77.2,57.7,36.7,50.4,40.4,33.5,97,57,25,30.29,30.12,7,3,13,0.02
2013-4-8,81.7,63.3,49.8,60.0,52.7,49.0,99,72,34,30.20,30.07,7,2,11,0.05
2013-4-9,89.4,71.9,54.1,63.4,58.0,53.3,99,66,34,30.21,30.08,7,2,21,0.04
2013-4-10,90.7,75.2,60.8,64.3,60.7,56.9,95,64,33,30.13,29.97,8,3,13,0.08
2013-4-11,86.0,75.5,61.5,69.1,62.8,59.1,98,67,43,30.02,29.82,8,4,17,0.15
2013-4-12,83.7,72.8,66.6,72.7,64.9,51.1,99,78,48,29.85,29.64,9,5,16,0.31
2013-4-13,81.1,67.6,53.4,51.5,41.9,34.9,63,42,22,29.99,29.78,9,3,12,0.39
2013-4-14,80.8,73.3,65.8,54.2,46.4,36.8,63,41,21,30.07,30.03,6,3,10,0.31
2013-4-15,73.0,66.7,61.3,60.7,57.9,52.0,93,74,61,30.21,30.01,11,4,15,0.01
2013-4-16,81.1,67.5,58.8,65.2,60.1,56.0,99,80,46,30.31,30.20,7,2,9,0.00
2013-4-17,86.4,71.3,56.3,66.5,62.4,56.0,99,76,47,30.25,30.12,6,2,9,0.05
2013-4-18,82.8,71.0,59.4,65.4,61.5,58.7,99,74,48,30.22,30.06,9,4,13,0.44
2013-4-19,75.7,68.6,65.5,69.9,67.0,63.5,99,95,80,30.06,29.80,9,5,15,0.24
2013-4-20,68.4,57.7,46.4,65.2,43.7,31.2,99,64,27,30.27,29.85,8,4,15,0.18
2013-4-21,64.2,51.2,41.9,46.0,42.2,38.2,99,74,42,30.48,30.27,14,5,21,0.00
2013-4-22,63.9,51.4,38.3,48.1,41.2,33.5,95,70,42,30.47,30.25,13,8,19,0.00
2013-4-23,70.9,56.2,47.8,52.8,49.7,47.1,99,81,49,30.27,30.12,9,4,13,0.01
2013-4-24,80.4,67.3,46.6,58.3,54.5,46.3,99,67,42,30.17,30.00,8,4,15,0.00
2013-4-25,77.0,62.9,52.2,59.6,49.1,42.3,98,64,35,30.29,30.03,8,3,14,0.00
2013-4-26,77.4,62.9,50.9,57.3,43.8,25.1,99,59,18,30.43,30.28,10,3,14,0.00
2013-4-27,79.5,63.7,52.5,55.5,47.1,39.5,84,59,27,30.38,30.27,7,2,10,0.04
2013-4-28,65.1,59.7,55.9,58.4,52.2,44.8,99,77,57,30.28,30.11,6,3,10,0.37
2013-4-29,76.5,64.5,56.1,67.5,62.1,55.9,99,92,69,30.11,29.98,5,2,6,0.63
2013-4-30,70.3,62.8,57.6,63.6,60.5,55.8,99,93,73,30.18,30.00,8,3,11,0.00
2013-5-1,60.8,59.3,58.3,60.1,58.4,56.6,99,97,91,30.30,30.15,12,6,18,0.00
2013-5-2,67.1,60.2,55.9,60.2,57.8,54.5,99,92,77,30.32,30.25,12,6,16,0.00
2013-5-3,72.0,60.2,51.1,58.0,51.7,43.8,99,76,52,30.26,30.17,13,8,18,0.02
2013-5-4,68.0,57.3,50.2,54.4,50.5,44.7,94,79,58,30.20,30.07,16,9,21,0.00
2013-5-5,62.1,56.8,50.7,58.4,53.8,48.8,95,90,83,30.08,29.97,13,9,19,0.06
2013-5-6,75.4,62.2,57.2,67.5,60.3,54.8,99,94,75,30.00,29.83,10,5,19,0.69
2013-5-7,76.1,60.0,50.2,62.1,53.2,47.3,99,82,40,29.96,29.85,8,2,13,0.01
2013-5-8,76.8,63.6,52.2,62.7,56.8,51.6,99,81,51,30.03,29.92,7,2,12,0.04
2013-5-9,84.4,69.0,53.6,64.8,59.1,52.8,99,75,41,30.08,29.98,6,2,9,0.01
2013-5-10,89.1,73.7,55.9,65.5,60.6,55.7,99,68,36,30.08,29.97,7,2,12,0.00
2013-5-11,87.3,75.7,67.5,67.4,63.7,59.5,87,68,43,29.99,29.82,9,4,14,0.05
2013-5-12,78.6,68.4,57.9,64.1,52.5,35.3,97,60,35,30.03,29.81,7,3,14,0.08
2013-5-13,72.1,60.0,50.0,42.7,36.5,23.8,71,44,19,30.17,30.03,8,3,14,0.00
2013-5-14,76.1,60.1,41.4,47.8,39.8,30.3,96,53,21,30.27,30.09,6,2,11,0.01
2013-5-15,93.0,72.1,52.9,63.6,56.0,43.4,87,60,35,30.10,29.92,6,2,11,0.00
2013-5-16,91.6,79.1,62.6,65.5,61.4,56.0,93,57,33,30.01,29.91,5,2,9,0.00
2013-5-17,70.9,66.8,64.6,64.9,63.3,62.1,96,89,75,30.07,30.00,2,0,4,0.00
2013-5-18,85.1,72.1,63.5,71.6,66.1,60.4,99,83,44,30.16,30.08,6,2,6,0.21
2013-5-19,81.3,71.4,67.6,73.0,68.9,67.1,99,92,66,30.17,30.07,8,3,13,0.26
2013-5-20,80.1,72.0,68.0,73.8,69.9,67.7,99,93,78,30.14,30.04,7,3,11,0.28
2013-5-21,88.0,74.6,68.5,75.3,70.8,68.3,99,89,57,30.07,29.97,7,3,11,0.06
2013-5-22,88.0,75.9,67.8,72.0,68.8,65.1,99,80,48,30.06,29.94,10,4,13,0.00
2013-5-23,85.5,73.4,68.7,75.0,70.0,66.6,99,90,57,29.98,29.85,6,2,8,0.20
2013-5-24,76.3,67.1,54.1,68.8,54.4,37.0,99,68,32,30.19,29.82,10,4,20,0.01
2013-5-25,78.6,61.2,42.8,51.7,43.1,32.6,95,57,23,30.29,30.15,8,2,11,0.00
2013-5-26,78.3,64.3,52.9,53.0,45.5,40.0,75,53,33,30.28,30.19,5,2,9,0.00
2013-5-28,72.3,72.3,72.3,63.2,63.2,63.2,73,73,73,29.94,29.94,4,4,7,0.00
2013-5-29,89.1,75.7,60.6,69.0,64.5,60.2,99,71,44,30.02,29.93,6,3,11,0.09
2013-5-30,90.5,77.1,60.8,70.2,64.9,60.2,99,70,41,30.05,29.94,6,2,8,0.00
2013-5-31,91.8,79.1,63.9,72.4,67.7,63.0,99,71,42,30.00,29.87,6,3,9,0.00
2013-6-1,91.4,78.9,65.8,72.4,67.7,63.5,99,72,42,29.91,29.79,7,3,11,0.00
2013-6-2,90.9,78.8,68.0,71.5,68.0,62.8,99,72,41,29.84,29.67,8,4,12,0.00
2013-6-3,87.3,74.4,66.7,75.9,71.6,65.8,99,91,65,29.73,29.60,7,3,11,0.57
2013-6-4,83.7,73.8,65.3,70.7,66.0,60.8,99,79,55,29.84,29.69,11,4,15,0.00
2013-6-5,85.5,78.1,68.0,65.1,60.3,56.4,85,55,41,29.90,29.78,8,5,12,0.00
2013-6-6,78.8,72.0,67.3,75.5,68.7,59.4,98,90,63,29.89,29.61,9,4,14,0.79
2013-6-7,79.0,72.2,69.3,77.0,71.3,69.0,99,97,91,29.87,29.46,12,3,17,1.87
2013-6-8,88.0,75.7,68.5,75.7,71.4,68.3,99,88,59,30.11,29.83,6,2,9,0.07
2013-6-9,90.9,77.9,67.6,76.4,71.3,14.4,99,82,11,30.17,30.08,6,2,10,0.11
2013-6-10,86.4,76.0,71.6,78.7,73.5,70.7,99,92,69,30.12,29.93,10,4,15,0.69
2013-6-11,89.8,77.9,69.6,74.0,69.4,65.1,98,78,48,29.98,29.92,6,3,10,0.04
2013-6-12,94.3,80.7,65.7,76.6,70.4,65.1,99,74,49,30.00,29.88,5,2,9,0.00
2013-6-13,99.1,82.4,69.1,78.6,72.5,66.9,98,76,38,29.88,29.62,9,3,21,0.19
2013-6-14,84.6,73.4,62.6,68.3,60.7,56.2,94,67,42,30.02,29.74,10,4,14,0.00
2013-6-15,89.4,74.3,58.8,66.1,62.1,58.4,99,70,38,30.14,30.01,5,2,8,0.00
2013-6-16,90.9,77.4,62.6,69.5,64.1,56.5,86,65,46,30.16,30.03,7,3,11,0.06
2013-6-17,90.9,78.8,70.5,74.2,68.9,65.1,94,73,48,30.06,29.94,6,3,10,0.00
2013-6-18,87.8,77.7,69.4,74.9,71.9,69.1,99,84,63,29.98,29.77,9,4,19,1.11
2013-6-19,83.3,74.5,66.4,71.5,68.3,65.7,99,82,58,30.12,29.87,8,4,13,0.01
2013-6-20,85.3,74.5,64.8,68.2,63.7,55.7,99,72,48,30.25,30.12,9,5,12,0.00
2013-6-21,85.6,74.1,58.8,69.0,60.3,51.9,95,64,38,30.26,30.18,8,4,12,0.05
2013-6-22,81.7,74.0,69.8,75.0,71.0,69.0,98,91,74,30.21,30.12,11,5,14,0.02
2013-6-23,88.7,76.5,68.7,77.9,72.4,68.5,99,88,62,30.23,30.14,6,2,11,0.00
2013-6-24,89.8,77.7,70.7,79.2,73.8,70.1,99,88,64,30.23,30.11,8,2,11,0.00
2013-6-25,93.4,77.1,69.4,77.8,72.3,69.2,99,86,55,30.15,30.03,8,2,16,0.00
2013-6-26,93.0,77.1,69.1,78.2,72.2,66.6,99,86,58,30.06,29.92,13,3,13,0.38
2013-6-27,91.9,77.4,68.0,79.1,73.0,67.7,99,88,56,29.93,29.75,10,3,19,0.06
2013-6-28,95.2,80.5,71.4,78.4,73.1,69.8,99,81,47,29.78,29.61,10,2,19,0.64
2013-6-29,90.5,81.2,69.3,76.8,74.3,69.0,99,81,59,29.75,29.62,6,3,11,0.93
2013-6-30,89.1,77.8,71.6,77.7,74.0,70.4,99,89,64,29.88,29.74,10,4,14,0.20
2013-7-1,85.5,76.4,70.9,78.4,73.5,70.3,99,91,71,30.00,29.86,9,3,12,0.67
2013-7-2,79.9,74.0,71.4,76.9,73.4,70.0,99,98,87,30.20,30.00,8,3,11,0.43
2013-7-3,74.7,74.5,73.9,74.4,74.2,73.7,99,99,99,30.19,30.17,5,4,10,0.01
2013-7-4,90.7,79.9,73.0,77.5,73.4,68.9,99,82,49,30.29,30.20,10,4,10,0.07
2013-7-5,92.7,80.9,71.6,78.2,73.9,15.5,99,81,11,30.30,30.18,9,3,14,0.00
2013-7-6,92.3,80.4,72.7,76.8,73.7,15.3,99,81,52,30.27,30.14,7,2,11,0.00
2013-7-7,92.3,80.3,68.7,76.8,72.8,68.5,99,80,52,30.21,30.08,9,3,11,0.00
2013-7-8,89.1,78.2,71.8,81.9,74.8,70.3,98,90,68,30.19,30.12,8,2,12,0.26
2013-7-9,89.6,77.3,71.8,79.3,74.7,70.8,99,92,61,30.19,30.09,6,2,11,0.19
2013-7-10,88.9,78.1,73.4,82.1,75.7,72.4,99,93,70,30.13,29.97,6,2,9,0.33
2013-7-11,74.7,74.0,73.4,74.2,73.6,73.2,99,98,97,30.00,29.95,4,2,6,0.00
2013-7-12,78.1,73.5,71.2,75.3,72.1,70.6,99,95,86,30.03,29.88,8,2,8,0.25
2013-7-13,81.3,74.2,71.1,78.4,73.2,70.5,99,97,91,30.18,30.02,12,3,12,0.25
2013-7-14,89.1,77.4,70.9,79.5,74.3,70.3,99,91,62,30.30,30.19,8,2,8,0.61
2013-7-15,92.5,80.8,71.2,79.5,73.5,69.6,99,81,51,30.34,30.25,6,2,9,0.00
2013-7-16,97.9,82.5,69.4,78.7,73.1,69.2,99,77,45,30.30,30.19,10,1,14,0.19
2013-7-17,95.2,84.3,74.3,80.8,75.1,70.2,99,77,47,30.24,30.12,8,2,11,0.00
2013-7-18,97.3,84.5,76.1,80.6,76.7,72.1,99,80,45,30.16,30.06,5,1,7,0.00
2013-7-19,93.4,83.3,74.3,78.4,75.5,70.9,99,79,55,30.13,30.00,9,3,12,0.01
2013-7-20,93.2,81.8,75.0,77.5,74.8,73.0,96,81,56,30.06,29.94,8,4,15,0.00
2013-7-21,92.7,77.3,71.8,77.7,73.7,70.9,99,89,60,30.02,29.91,8,2,14,1.36
2013-7-22,91.4,79.1,71.8,79.2,74.6,70.9,99,87,63,29.98,29.84,5,2,8,0.01
2013-7-23,93.7,82.1,73.6,78.3,74.7,72.9,99,80,54,29.88,29.75,6,2,9,0.04
2013-7-24,97.7,82.6,71.2,76.5,72.7,69.0,99,75,43,29.86,29.74,6,2,8,0.41
2013-7-25,83.1,74.9,69.8,73.1,71.1,68.0,98,88,68,30.03,29.82,8,3,11,0.06
2013-7-26,90.0,76.6,63.7,69.7,66.3,62.1,99,74,45,30.13,30.02,7,2,10,0.00
2013-7-27,89.8,74.9,68.0,74.7,70.3,67.7,99,87,51,30.08,29.95,6,2,10,0.81
2013-7-28,91.2,78.8,70.3,77.0,72.4,67.1,99,83,48,30.03,29.93,5,2,8,0.02
2013-7-29,91.2,79.3,71.2,74.1,71.3,67.1,97,79,47,30.17,30.00,8,2,11,0.00
2013-7-30,92.8,78.4,65.7,72.0,67.9,63.2,97,73,42,30.23,30.14,7,2,11,0.00
2013-7-31,87.1,77.9,71.4,76.9,73.1,69.5,99,86,66,30.16,30.02,6,2,12,0.25
2013-8-1,72.3,71.2,70.7,71.3,70.5,69.7,98,98,96,30.04,29.95,3,1,5,0.00
2013-8-2,94.5,81.1,71.1,76.9,73.1,70.5,99,79,50,30.04,29.92,6,1,6,0.00
2013-8-3,93.9,80.6,72.5,78.3,74.7,71.5,99,85,50,30.05,29.93,7,2,7,0.48
2013-8-4,86.5,77.1,68.4,76.5,70.0,63.7,99,81,51,30.05,29.91,9,3,9,0.00
2013-8-5,87.6,76.1,64.6,69.2,65.4,60.4,99,73,44,30.12,30.03,8,3,8,0.00
2013-8-6,86.7,76.0,67.5,72.7,68.2,65.6,99,78,55,30.09,30.03,11,2,11,0.13
2013-8-7,88.7,78.5,69.4,73.2,70.1,68.1,97,78,52,30.13,30.05,7,2,7,0.00
2013-8-8,93.0,81.4,70.2,76.8,72.8,69.6,99,77,51,30.09,30.03,6,2,6,0.00
2013-8-9,95.7,83.0,73.9,79.8,75.6,72.9,99,80,50,30.09,30.01,6,2,9,0.00
2013-8-10,97.2,82.3,73.8,80.9,76.1,72.9,99,83,52,30.13,30.03,8,2,17,0.26
2013-8-11,97.7,83.0,71.4,79.4,75.1,70.7,99,79,49,30.14,30.03,4,1,7,0.00
2013-8-12,97.2,84.3,73.4,79.8,75.1,70.9,99,77,44,30.07,29.96,5,1,8,0.00
2013-8-13,95.4,81.1,73.2,80.4,76.0,72.4,99,86,56,29.99,29.80,7,2,14,0.48
2013-8-14,77.4,72.8,64.2,73.9,68.6,61.2,99,87,75,30.10,29.85,8,3,11,0.00
2013-8-15,64.4,63.4,62.4,61.4,59.7,58.2,90,88,85,30.11,30.09,4,3,6,0.00
2013-8-23,92.3,79.5,69.4,76.7,72.6,69.1,99,81,53,30.08,29.95,9,2,9,0.01
2013-8-24,84.7,74.7,66.0,69.7,63.4,58.4,96,70,45,30.32,30.08,12,6,12,0.00
2013-8-25,82.8,71.3,61.5,66.2,60.8,55.2,98,73,39,30.41,30.31,10,3,10,0.00
2013-8-26,86.9,70.5,55.6,65.8,60.1,54.7,99,74,37,30.34,30.14,5,1,5,0.00
2013-8-27,92.8,76.0,60.4,74.3,67.5,59.1,97,77,50,30.15,29.99,5,1,5,0.00
2013-8-28,89.1,78.4,68.5,78.2,73.9,68.2,99,87,64,30.02,29.91,3,0,3,0.00
2013-8-29,91.4,79.1,73.2,76.0,73.2,71.1,94,83,55,30.03,29.87,11,4,11,0.00
2013-8-30,91.6,77.1,65.5,71.8,68.4,64.5,99,78,43,30.08,29.96,7,2,11,0.11
2013-8-31,91.4,77.5,65.7,76.4,69.9,65.4,99,80,50,30.00,29.88,6,2,11,0.02
2013-9-1,95.7,83.8,70.9,78.1,73.6,70.3,99,74,49,29.93,29.79,11,3,20,0.61
2013-9-2,92.8,79.4,70.7,79.3,74.2,70.1,99,86,57,29.92,29.82,4,1,8,0.02
2013-9-3,91.9,77.9,71.2,81.8,73.9,69.0,99,88,55,29.95,29.82,5,1,13,0.34
2013-9-4,90.5,77.2,68.4,74.8,71.4,66.7,99,84,55,30.09,29.95,7,2,11,0.00
2013-9-5,93.0,77.9,66.7,76.1,68.5,61.8,99,76,38,30.12,30.04,4,1,8,0.00
2013-9-6,87.3,74.4,66.6,67.6,63.1,58.8,93,70,44,30.19,30.08,9,4,13,0.00
2013-9-7,88.3,73.9,59.5,66.6,62.9,59.2,99,72,42,30.14,29.99,4,2,8,0.00
2013-9-8,92.8,80.7,62.8,69.5,64.2,59.0,99,61,36,29.99,29.92,6,2,8,0.00
2013-9-9,91.2,77.5,64.2,72.5,68.0,63.4,99,75,48,30.17,30.00,9,2,11,0.00
2013-9-10,94.8,79.3,65.7,75.9,69.3,64.7,99,75,43,30.25,30.16,4,1,7,0.02
2013-9-11,93.0,81.3,65.3,73.7,69.3,64.3,99,69,39,30.23,30.10,5,2,8,0.01
2013-9-12,95.7,79.1,68.2,73.1,69.8,67.2,98,76,44,30.10,29.84,6,2,11,0.07
2013-9-13,90.5,80.8,68.9,70.5,61.2,56.8,94,52,40,29.90,29.76,6,3,11,0.57
2013-9-14,81.7,69.7,59.7,57.1,54.3,50.3,88,61,36,30.14,29.89,10,3,13,0.04
2013-9-15,86.4,69.8,56.5,64.1,59.3,54.2,97,72,43,30.25,30.14,6,2,13,0.00
2013-9-16,90.3,75.7,66.2,75.7,66.2,60.5,99,76,39,30.19,30.06,10,3,18,0.41
2013-9-17,79.9,69.9,63.0,62.3,57.9,51.6,86,68,40,30.33,30.20,13,7,17,0.00
2013-9-18,78.3,69.6,52.7,56.3,53.8,50.1,95,60,39,30.31,30.19,7,4,11,0.00
2013-9-19,82.8,73.4,53.8,63.7,60.7,52.9,99,67,46,30.21,30.10,5,1,8,0.00
2013-9-20,71.2,67.1,64.6,68.9,64.6,60.4,99,92,79,30.12,29.99,5,2,9,0.17
2013-9-21,80.8,71.4,65.7,72.5,68.9,65.4,99,92,72,30.00,29.75,8,3,10,0.52
2013-9-22,81.3,69.1,61.3,69.8,62.7,57.3,99,82,51,29.91,29.71,13,6,18,1.50
2013-9-23,76.6,63.6,55.4,58.1,55.1,51.5,98,76,47,30.08,29.91,7,3,11,0.00
2013-9-24,81.9,64.9,53.4,62.0,57.3,52.8,99,79,43,30.11,29.96,5,1,7,0.00
2013-9-25,77.0,65.3,53.2,64.3,59.1,52.5,99,82,56,29.97,29.88,6,1,8,0.00
2013-9-26,77.2,65.9,59.7,63.4,60.9,56.5,96,85,50,29.98,29.88,9,3,14,0.00
2013-9-27,77.4,65.2,56.8,62.9,57.5,55.1,99,78,49,30.19,30.04,11,4,11,0.01
2013-9-28,76.5,64.1,53.6,58.8,55.5,52.8,97,76,47,30.25,30.16,11,4,11,0.09
2013-9-29,76.5,63.7,52.3,60.7,55.2,51.8,99,77,45,30.17,30.04,11,3,11,0.02
2013-9-30,79.7,67.6,53.4,64.0,56.7,51.9,99,71,40,30.10,30.01,6,2,8,0.00
2013-10-1,87.3,68.2,52.2,64.9,58.5,51.6,99,76,43,30.14,30.04,4,1,8,0.00
2013-10-2,90.0,71.6,57.0,66.5,61.5,56.8,99,75,38,30.15,30.06,5,1,8,0.00
2013-10-3,88.9,71.9,58.3,69.3,63.4,58.0,99,78,43,30.16,30.08,4,1,8,0.00
2013-10-4,66.4,65.1,60.8,63.8,63.3,60.2,98,94,93,30.13,30.11,0,0,0,0.00
2013-10-5,92.5,75.7,61.2,73.8,65.3,60.6,99,74,42,30.13,30.04,5,1,5,0.00
2013-10-6,87.6,73.4,63.0,73.5,68.8,62.1,99,87,57,30.08,29.95,8,2,8,0.02
2013-10-7,76.3,71.1,64.9,74.1,69.9,62.8,98,96,92,29.99,29.87,9,3,12,0.86
2013-10-8,65.3,59.6,56.3,62.8,53.2,47.5,96,80,64,30.19,29.96,14,8,22,0.02
2013-10-9,64.0,59.4,55.6,57.8,54.9,51.4,99,85,77,30.17,30.06,11,8,18,0.04
2013-10-10,61.3,58.8,54.3,60.5,57.8,53.5,99,96,94,30.06,29.93,11,5,14,0.08
2013-10-11,71.2,63.7,59.4,63.4,61.3,59.1,99,92,74,29.98,29.90,6,3,10,0.00
2013-10-12,70.2,66.9,61.3,66.3,64.3,60.5,98,91,84,30.07,29.97,6,3,8,0.00
2013-10-13,69.6,64.7,62.6,66.1,63.5,61.8,98,96,86,30.19,30.06,8,4,12,0.12
2013-10-14,67.6,63.5,57.9,63.9,61.6,57.4,98,94,86,30.22,30.16,9,6,14,0.01
2013-10-15,75.2,64.0,54.1,63.2,59.2,53.3,99,85,63,30.19,30.05,9,4,12,0.01
2013-10-16,72.5,65.9,61.0,65.3,62.6,60.3,98,90,73,30.06,29.97,4,1,5,0.00
2013-10-17,82.4,68.1,57.9,67.6,63.4,57.7,99,86,55,29.98,29.71,6,2,11,0.00
2013-10-18,69.8,64.7,59.7,66.1,56.1,47.3,99,75,53,30.05,29.89,8,2,12,0.00
2013-10-19,70.5,64.9,61.2,66.3,62.0,56.7,97,90,81,29.98,29.84,4,1,6,0.04
2013-10-20,70.3,58.5,46.2,59.8,48.0,41.4,99,73,39,30.12,29.91,9,3,14,0.05
2013-10-21,73.0,55.3,41.4,54.9,47.3,41.1,99,79,39,30.16,30.01,5,1,9,0.00
2013-10-22,66.0,58.6,51.8,60.1,56.0,50.6,99,91,80,30.02,29.82,3,0,4,0.00
2013-10-23,73.0,60.7,48.2,60.9,49.2,32.1,99,71,30,30.01,29.70,7,3,11,0.00
2013-10-24,64.2,49.3,35.8,44.1,36.3,31.4,96,65,31,30.18,30.01,5,2,9,0.00
2013-10-25,60.3,48.6,36.1,39.3,32.0,22.4,87,56,24,30.36,30.17,9,3,16,0.00
2013-10-26,64.0,46.2,30.4,40.6,32.7,27.3,99,65,26,30.36,30.08,6,1,10,0.04
2013-10-27,72.9,55.2,41.7,46.9,42.1,37.3,96,66,33,30.13,30.04,6,1,9,0.07
2013-10-28,67.5,55.1,43.7,56.8,51.2,43.2,99,88,64,30.26,30.11,3,0,4,0.00
2013-10-29,78.1,59.6,48.4,61.3,53.6,48.1,99,84,46,30.33,30.24,4,1,6,0.00
2013-10-30,76.8,62.5,52.3,62.8,56.7,51.8,99,83,52,30.30,30.17,6,1,9,0.00
2013-10-31,77.9,64.6,53.6,65.4,57.9,52.8,99,81,49,30.21,29.96,7,2,13,0.00
2013-11-1,75.6,69.8,66.2,69.4,66.4,65.4,99,89,71,29.96,29.70,9,4,15,0.98
2013-11-2,74.8,63.3,52.0,62.6,53.5,44.4,99,74,38,29.93,29.71,8,2,8,0.11
2013-11-3,66.4,54.9,45.0,45.0,39.7,34.6,88,60,35,30.35,29.93,13,3,13,1.18
2013-11-4,60.1,47.5,39.9,40.9,34.9,29.4,85,64,33,30.54,30.35,11,4,14,0.00
2013-11-5,61.3,50.7,40.3,51.6,44.6,35.5,90,80,62,30.51,30.41,8,5,11,0.00
2013-11-6,74.1,59.3,47.7,58.3,53.3,47.4,99,83,52,30.41,30.12,7,2,11,0.00
2013-11-7,72.9,61.6,46.6,66.1,55.8,33.6,99,83,52,30.13,29.93,9,2,17,0.12
2013-11-8,61.7,47.4,35.2,35.1,30.4,20.9,87,56,22,30.32,30.09,9,3,13,0.00
2013-11-9,63.9,47.6,32.4,40.5,33.1,22.7,96,62,21,30.36,30.19,6,1,8,0.01
2013-11-10,75.9,55.8,37.6,43.5,36.9,27.2,94,54,19,30.22,30.06,7,2,11,0.02
2013-11-11,63.9,47.9,33.1,40.6,30.7,23.2,94,56,22,30.34,30.14,8,2,12,0.00
2013-11-12,64.9,44.5,34.9,45.2,34.4,16.5,96,71,34,30.39,30.05,14,4,21,0.01
2013-11-13,49.1,37.1,26.4,23.9,17.0,6.6,83,48,20,30.51,30.38,10,4,15,0.00
2013-11-14,61.0,39.9,24.6,32.4,21.9,14.4,88,56,17,30.46,30.33,6,1,9,0.00
2013-11-15,66.7,47.8,29.5,50.6,39.0,24.1,93,74,33,30.35,30.20,4,1,8,0.00
2013-11-16,74.7,59.6,51.6,60.6,55.7,49.6,99,88,57,30.26,30.19,5,2,8,0.00
2013-11-17,74.7,63.9,55.0,67.2,60.3,54.2,99,89,64,30.22,29.92,6,2,9,0.14
2013-11-18,80.1,68.2,54.9,68.7,55.7,30.1,99,68,37,29.95,29.81,8,3,14,0.05
2013-11-19,59.9,50.4,43.0,32.3,28.5,22.7,63,44,24,30.31,29.95,11,5,17,0.00
2013-11-20,56.3,46.2,38.8,40.6,34.2,29.2,86,64,45,30.43,30.30,12,6,17,0.00
2013-11-21,66.9,52.6,43.5,51.3,45.7,39.9,93,78,57,30.48,30.37,10,3,14,0.00
2013-11-22,74.1,61.8,48.7,62.6,57.3,48.5,99,86,66,30.38,30.09,6,2,8,0.01
2013-11-23,62.2,56.9,43.9,61.7,46.6,20.0,99,72,33,30.17,30.03,8,2,14,0.11
2013-11-24,48.6,34.0,25.0,23.7,8.3,-4.6,54,35,17,30.47,29.81,13,5,20,0.18
2013-11-25,45.7,32.4,20.1,18.2,8.9,-7.1,71,41,18,30.06,29.85,6,2,10,0.00
2013-11-26,67.1,48.5,36.7,66.7,40.7,9.2,99,77,31,29.85,29.06,10,5,15,0.46
2013-11-27,67.5,42.7,30.0,66.6,39.8,18.4,99,90,58,29.65,28.98,8,4,16,0.92
2013-11-28,47.5,33.4,23.2,26.5,20.5,12.7,86,61,35,29.97,29.65,7,2,13,0.00
2013-11-29,54.9,38.2,25.2,35.5,24.6,20.6,93,62,27,30.11,29.95,9,3,14,0.00
2013-11-30,53.4,39.4,30.9,35.9,29.8,23.7,87,69,48,30.11,29.84,9,4,12,0.00
2013-12-1,62.6,45.2,32.5,42.1,36.6,29.0,93,74,42,29.83,29.50,4,1,5,0.00
2013-12-2,63.7,48.4,39.2,47.7,42.0,38.2,98,81,43,29.50,29.32,4,1,6,0.00
2013-12-3,58.1,47.5,34.5,48.1,42.2,33.5,99,83,60,29.50,29.37,5,1,7,0.00
2013-12-4,65.1,56.9,51.4,59.3,53.4,47.0,98,88,78,29.61,29.49,4,1,5,0.00
2013-12-5,53.6,52.2,50.9,52.9,51.7,50.6,99,98,98,29.61,29.59,0,0,1,0.00
2013-12-6,79.0,70.9,64.6,64.9,63.8,62.5,96,80,59,30.15,30.05,14,5,14,0.00
2013-12-7,68.9,51.1,43.3,65.3,46.4,34.6,97,84,71,30.48,30.07,14,7,14,0.25
2013-12-8,43.0,36.8,34.5,34.5,33.3,30.9,97,88,66,30.50,30.34,11,6,11,0.13
2013-12-9,47.5,43.9,34.9,47.2,43.3,34.1,99,98,97,30.32,30.11,4,1,4,0.07
2013-12-10,49.1,44.9,29.8,48.8,42.5,26.5,99,91,67,30.37,29.94,8,2,11,0.38
2013-12-11,29.7,28.1,26.8,26.6,25.1,23.5,91,88,87,30.38,30.36,1,0,2,0.00
2013-12-12,48.4,36.4,26.4,28.0,20.0,8.0,86,56,23,30.44,30.30,10,3,10,0.00
2013-12-13,55.4,37.9,24.1,31.1,20.7,13.8,80,56,21,30.43,30.31,7,1,7,0.00
2013-12-14,47.8,42.9,38.7,45.6,36.7,25.1,99,80,47,30.33,29.83,9,3,9,0.50
2013-12-15,58.8,46.4,35.1,47.3,36.6,25.7,99,70,47,30.12,29.76,6,2,9,0.02
2013-12-16,59.4,42.4,29.7,34.7,30.8,25.0,85,66,36,30.22,30.11,4,1,8,0.00
2013-12-17,64.8,48.0,30.7,40.4,34.4,28.0,96,63,31,30.17,29.93,8,2,17,0.00
2013-12-18,54.3,42.1,29.7,36.6,21.3,11.2,78,47,19,30.34,30.06,9,3,16,0.00
2013-12-19,64.8,44.8,27.5,31.8,24.4,15.8,84,51,15,30.37,30.26,7,2,13,0.00
2013-12-20,69.4,52.7,38.7,55.6,44.2,29.7,91,74,52,30.29,30.17,7,1,13,0.12
2013-12-21,75.0,60.9,47.8,66.3,56.7,46.9,99,87,65,30.21,30.10,9,3,14,0.01
2013-12-22,79.7,70.5,63.5,66.7,64.7,61.8,96,83,60,30.16,30.08,12,4,16,0.14
2013-12-23,70.0,62.1,47.8,68.9,60.7,43.1,99,95,84,30.20,30.05,9,3,14,1.13
2013-12-24,50.4,42.8,31.1,43.1,31.0,13.1,93,64,43,30.48,30.16,9,5,12,0.00
2013-12-25,43.7,31.7,24.8,21.6,11.2,2.7,71,44,22,30.57,30.42,10,3,14,0.01
2013-12-26,53.6,38.0,30.0,34.7,28.7,21.6,87,70,45,30.42,30.29,5,1,7,0.01
2013-12-27,56.1,40.0,29.3,27.2,22.1,17.5,80,52,23,30.49,30.39,6,2,8,0.04
2013-12-28,63.0,44.0,26.4,38.2,27.7,19.4,92,58,20,30.44,30.20,4,1,7,0.04
2013-12-29,64.4,51.7,45.1,64.1,49.5,34.2,99,93,54,30.20,29.73,7,3,12,0.93
2013-12-30,59.5,46.7,37.6,49.0,41.0,35.8,99,82,53,30.17,29.96,5,1,10,0.01
2013-12-31,53.2,43.9,33.8,39.2,30.8,18.8,83,62,28,30.39,30.11,7,2,11,0.00
2014-1-1,53.8,40.6,32.5,35.3,28.2,19.9,85,64,29,30.44,30.19,5,1,8,0.00
2014-1-2,48.0,44.7,39.7,47.8,41.5,32.5,99,89,68,30.19,29.62,6,1,10,0.21